createdAt,value
2023-02-14T00:00:37.793Z,966.17
2023-02-14T00:03:04.177Z,966.24
2023-02-14T00:05:30.508Z,966.12
2023-02-14T00:07:56.880Z,966.13
2023-02-14T00:10:23.236Z,966.12
2023-02-14T00:12:49.616Z,966.09
2023-02-14T00:15:15.971Z,966.09
2023-02-14T00:17:42.585Z,966.14
2023-02-14T00:20:08.980Z,966.19
2023-02-14T00:22:35.339Z,966.22
2023-02-14T00:25:01.705Z,966.16
2023-02-14T00:27:28.067Z,966.11
2023-02-14T00:29:54.446Z,966.15
2023-02-14T00:32:21.101Z,966.03
2023-02-14T00:34:47.435Z,966.03
2023-02-14T00:37:13.760Z,966.06
2023-02-14T00:39:40.157Z,966.06
2023-02-14T00:42:06.469Z,965.98
2023-02-14T00:44:32.812Z,965.97
2023-02-14T00:46:59.169Z,966.00
2023-02-14T00:49:25.554Z,966.02
2023-02-14T00:51:51.968Z,966.01
2023-02-14T00:54:18.290Z,965.92
2023-02-14T00:56:44.698Z,965.87
2023-02-14T00:59:11.081Z,965.84
2023-02-14T01:01:37.418Z,965.80
2023-02-14T01:04:03.793Z,965.78
2023-02-14T01:06:30.103Z,965.75
2023-02-14T01:08:56.462Z,965.76
2023-02-14T01:11:22.849Z,965.71
2023-02-14T01:13:49.180Z,965.70
2023-02-14T01:16:15.574Z,965.70
2023-02-14T01:18:41.877Z,965.73
2023-02-14T01:21:08.253Z,965.65
2023-02-14T01:23:34.597Z,965.64
2023-02-14T01:26:00.924Z,965.57
2023-02-14T01:28:27.271Z,965.61
2023-02-14T01:30:53.645Z,965.58
2023-02-14T01:33:19.936Z,965.58
2023-02-14T01:35:46.255Z,965.55
2023-02-14T01:38:12.641Z,965.49
2023-02-14T01:40:38.959Z,965.30
2023-02-14T01:43:05.297Z,965.25
2023-02-14T01:45:31.672Z,965.35
2023-02-14T01:47:57.993Z,965.29
2023-02-14T01:50:24.315Z,965.23
2023-02-14T01:52:50.730Z,965.17
2023-02-14T01:55:17.080Z,965.21
2023-02-14T01:57:43.460Z,965.18
2023-02-14T02:00:09.852Z,965.29
2023-02-14T02:02:36.304Z,965.24
2023-02-14T02:05:02.502Z,965.23
2023-02-14T02:07:28.851Z,965.24
2023-02-14T02:09:55.169Z,965.26
2023-02-14T02:12:21.576Z,965.24
2023-02-14T02:14:47.948Z,965.25
2023-02-14T02:17:14.324Z,965.28
2023-02-14T02:19:40.645Z,965.22
2023-02-14T02:22:07.014Z,965.22
2023-02-14T02:24:33.434Z,965.14
2023-02-14T02:26:59.820Z,965.10
2023-02-14T02:29:26.146Z,964.98
2023-02-14T02:31:52.614Z,965.01
2023-02-14T02:34:18.851Z,965.01
2023-02-14T02:36:45.244Z,964.91
2023-02-14T02:39:11.573Z,964.83
2023-02-14T02:41:37.909Z,964.81
2023-02-14T02:44:04.275Z,964.77
2023-02-14T02:46:30.683Z,964.86
2023-02-14T02:48:56.990Z,964.84
2023-02-14T02:51:23.396Z,964.79
2023-02-14T02:53:49.711Z,964.73
2023-02-14T02:56:16.048Z,964.85
2023-02-14T02:58:42.406Z,964.89
2023-02-14T03:01:08.849Z,964.92
2023-02-14T03:03:35.101Z,964.94
2023-02-14T03:06:01.512Z,964.92
2023-02-14T03:08:27.866Z,964.91
2023-02-14T03:10:54.206Z,964.95
2023-02-14T03:13:20.528Z,964.91
2023-02-14T03:15:46.959Z,964.90
2023-02-14T03:18:13.270Z,964.88
2023-02-14T03:20:39.637Z,964.84
2023-02-14T03:23:05.977Z,964.76
2023-02-14T03:25:32.349Z,964.70
2023-02-14T03:27:58.734Z,964.64
2023-02-14T03:30:25.244Z,964.54
2023-02-14T03:32:51.507Z,964.60
2023-02-14T03:35:17.888Z,964.57
2023-02-14T03:37:44.210Z,964.62
2023-02-14T03:40:10.583Z,964.72
2023-02-14T03:42:36.964Z,964.66
2023-02-14T03:45:03.314Z,964.65
2023-02-14T03:47:29.596Z,964.62
2023-02-14T03:49:55.943Z,964.57
2023-02-14T03:52:22.304Z,964.51
2023-02-14T03:54:48.692Z,964.44
2023-02-14T03:57:15.028Z,964.46
2023-02-14T03:59:41.411Z,964.34
2023-02-14T04:02:07.795Z,964.35
2023-02-14T04:04:34.259Z,964.29
2023-02-14T04:07:00.595Z,964.31
2023-02-14T04:09:27.006Z,964.36
2023-02-14T04:11:53.334Z,964.24
2023-02-14T04:14:19.715Z,964.39
2023-02-14T04:16:46.037Z,964.38
2023-02-14T04:19:12.521Z,964.36
2023-02-14T04:21:38.875Z,964.42
2023-02-14T04:24:05.214Z,964.41
2023-02-14T04:26:31.577Z,964.37
2023-02-14T04:28:57.977Z,964.37
2023-02-14T04:31:24.416Z,964.33
2023-02-14T04:33:50.988Z,964.40
2023-02-14T04:36:17.302Z,964.37
2023-02-14T04:38:43.638Z,964.37
2023-02-14T04:41:09.967Z,964.27
2023-02-14T04:43:36.374Z,964.17
2023-02-14T04:46:02.731Z,964.20
2023-02-14T04:48:29.122Z,964.14
2023-02-14T04:50:55.452Z,964.08
2023-02-14T04:53:21.819Z,964.07
2023-02-14T04:55:48.156Z,964.05
2023-02-14T04:58:14.490Z,964.04
2023-02-14T05:00:40.836Z,964.08
2023-02-14T05:03:07.156Z,964.16
2023-02-14T05:05:33.483Z,964.07
2023-02-14T05:07:59.863Z,964.20
2023-02-14T05:10:26.195Z,964.09
2023-02-14T05:12:52.591Z,964.10
2023-02-14T05:15:18.940Z,964.13
2023-02-14T05:17:45.316Z,964.10
2023-02-14T05:20:11.782Z,964.11
2023-02-14T05:22:38.115Z,964.10
2023-02-14T05:25:04.513Z,964.03
2023-02-14T05:27:30.890Z,964.07
2023-02-14T05:29:57.259Z,964.14
2023-02-14T05:32:23.613Z,964.11
2023-02-14T05:34:49.969Z,964.12
2023-02-14T05:37:16.319Z,964.05
2023-02-14T05:39:42.633Z,964.02
2023-02-14T05:42:11.886Z,963.99
2023-02-14T05:44:38.216Z,964.07
2023-02-14T05:47:04.593Z,964.05
2023-02-14T05:49:30.920Z,963.98
2023-02-14T05:51:57.262Z,964.07
2023-02-14T05:54:23.579Z,964.04
2023-02-14T05:56:49.934Z,964.01
2023-02-14T05:59:16.264Z,964.13
2023-02-14T06:01:42.609Z,964.06
2023-02-14T06:04:08.983Z,964.04
2023-02-14T06:06:36.763Z,964.07
2023-02-14T06:09:01.646Z,964.12
2023-02-14T06:11:28.103Z,964.11
2023-02-14T06:13:54.512Z,964.18
2023-02-14T06:16:20.917Z,964.14
2023-02-14T06:18:47.403Z,964.17
2023-02-14T06:21:13.795Z,964.03
2023-02-14T06:23:40.165Z,964.20
2023-02-14T06:26:06.496Z,964.24
2023-02-14T06:28:32.831Z,964.23
2023-02-14T06:30:59.635Z,964.20
2023-02-14T06:33:25.936Z,964.21
2023-02-14T06:35:52.337Z,964.18
2023-02-14T06:38:18.641Z,964.21
2023-02-14T06:40:45.082Z,964.19
2023-02-14T06:43:11.389Z,964.22
2023-02-14T06:45:37.738Z,964.21
2023-02-14T06:48:04.103Z,964.19
2023-02-14T06:50:30.515Z,964.15
2023-02-14T06:52:56.902Z,964.08
2023-02-14T06:55:23.368Z,964.14
2023-02-14T06:57:49.721Z,964.14
2023-02-14T07:00:17.169Z,964.17
2023-02-14T07:02:44.679Z,964.01
2023-02-14T07:05:11.002Z,964.06
2023-02-14T07:07:37.763Z,963.95
2023-02-14T07:10:04.175Z,963.82
2023-02-14T07:12:30.559Z,963.85
2023-02-14T07:14:56.875Z,963.94
2023-02-14T07:17:23.220Z,963.94
2023-02-14T07:19:49.694Z,963.96
2023-02-14T07:22:16.015Z,963.97
2023-02-14T07:24:42.447Z,964.00
2023-02-14T07:27:08.809Z,964.02
2023-02-14T07:29:35.156Z,964.04
2023-02-14T07:32:01.615Z,964.03
2023-02-14T07:34:27.946Z,963.96
2023-02-14T07:36:54.259Z,964.09
2023-02-14T07:39:20.610Z,964.04
2023-02-14T07:41:46.976Z,964.02
2023-02-14T07:44:13.372Z,963.99
2023-02-14T07:46:40.788Z,964.09
2023-02-14T07:49:07.184Z,964.23
2023-02-14T07:51:33.561Z,964.11
2023-02-14T07:53:59.901Z,964.15
2023-02-14T07:56:26.441Z,964.20
2023-02-14T07:58:52.851Z,964.21
2023-02-14T08:01:19.230Z,964.23
2023-02-14T08:03:45.562Z,964.26
2023-02-14T08:06:11.974Z,964.31
2023-02-14T08:08:38.452Z,964.18
2023-02-14T08:11:04.763Z,964.38
2023-02-14T08:13:31.396Z,964.39
2023-02-14T08:15:57.857Z,964.34
2023-02-14T08:18:24.153Z,964.44
2023-02-14T08:20:50.532Z,964.37
2023-02-14T08:23:16.913Z,964.44
2023-02-14T08:25:43.348Z,964.54
2023-02-14T08:28:09.739Z,964.48
2023-02-14T08:30:36.094Z,964.41
2023-02-14T08:33:03.574Z,964.33
2023-02-14T08:35:29.944Z,964.29
2023-02-14T08:37:56.360Z,964.33
2023-02-14T08:40:22.717Z,964.35
2023-02-14T08:42:49.055Z,964.45
2023-02-14T08:45:15.379Z,964.47
2023-02-14T08:47:41.771Z,964.34
2023-02-14T08:50:08.110Z,964.34
2023-02-14T08:52:34.487Z,964.33
2023-02-14T08:55:00.929Z,964.40
2023-02-14T08:57:27.277Z,964.40
2023-02-14T08:59:53.636Z,964.40
2023-02-14T09:02:20.398Z,964.44
2023-02-14T09:04:46.699Z,964.44
2023-02-14T09:07:13.082Z,964.42
2023-02-14T09:09:39.442Z,964.39
2023-02-14T09:12:05.808Z,964.35
2023-02-14T09:14:32.234Z,964.33
2023-02-14T09:16:58.655Z,964.27
2023-02-14T09:19:24.889Z,964.19
2023-02-14T09:21:51.307Z,964.10
2023-02-14T09:24:17.678Z,964.17
2023-02-14T09:26:44.016Z,964.19
2023-02-14T09:29:10.452Z,964.24
2023-02-14T09:31:37.488Z,964.21
2023-02-14T09:34:03.633Z,964.27
2023-02-14T09:36:30.029Z,964.23
2023-02-14T09:38:56.388Z,964.14
2023-02-14T09:41:22.774Z,964.22
2023-02-14T09:43:49.158Z,964.21
2023-02-14T09:46:15.795Z,964.14
2023-02-14T09:48:42.044Z,964.09
2023-02-14T09:51:08.437Z,964.11
2023-02-14T09:53:34.762Z,964.07
2023-02-14T09:56:01.155Z,964.09
2023-02-14T09:58:28.003Z,964.08
2023-02-14T10:00:53.829Z,964.03
2023-02-14T10:03:20.150Z,964.04
2023-02-14T10:05:46.491Z,964.01
2023-02-14T10:08:12.845Z,963.98
2023-02-14T10:10:39.726Z,964.01
2023-02-14T10:13:05.607Z,964.02
2023-02-14T10:15:32.075Z,963.94
2023-02-14T10:17:58.464Z,963.97
2023-02-14T10:20:24.844Z,964.02
2023-02-14T10:22:51.155Z,963.92
2023-02-14T10:25:17.523Z,964.01
2023-02-14T10:27:44.115Z,963.95
2023-02-14T10:30:10.488Z,963.88
2023-02-14T10:32:36.808Z,963.86
2023-02-14T10:35:03.157Z,963.83
2023-02-14T10:37:29.518Z,963.88
2023-02-14T10:39:56.103Z,963.89
2023-02-14T10:42:22.414Z,963.89
2023-02-14T10:44:48.804Z,963.89
2023-02-14T10:47:15.196Z,963.78
2023-02-14T10:49:41.516Z,963.87
2023-02-14T10:52:07.899Z,963.85
2023-02-14T10:54:34.261Z,963.81
2023-02-14T10:57:00.687Z,963.66
2023-02-14T10:59:27.014Z,963.67
2023-02-14T11:01:53.327Z,963.81
2023-02-14T11:04:19.695Z,963.78
2023-02-14T11:06:46.048Z,963.71
2023-02-14T11:09:12.427Z,963.76
2023-02-14T11:11:38.979Z,963.75
2023-02-14T11:14:05.322Z,963.71
2023-02-14T11:16:31.757Z,963.76
2023-02-14T11:18:58.084Z,963.67
2023-02-14T11:21:24.463Z,963.61
2023-02-14T11:23:50.786Z,963.74
2023-02-14T11:26:17.175Z,963.61
2023-02-14T11:28:43.630Z,963.60
2023-02-14T11:31:10.022Z,963.53
2023-02-14T11:33:36.347Z,963.49
2023-02-14T11:36:02.857Z,963.55
2023-02-14T11:38:29.223Z,963.50
2023-02-14T11:40:55.569Z,963.54
2023-02-14T11:43:21.919Z,963.57
2023-02-14T11:45:48.332Z,963.49
2023-02-14T11:48:16.181Z,963.39
2023-02-14T11:50:40.970Z,963.39
2023-02-14T11:53:07.327Z,963.31
2023-02-14T11:55:33.707Z,963.26
2023-02-14T11:58:00.056Z,963.26
2023-02-14T12:00:26.396Z,963.31
2023-02-14T12:02:53.171Z,963.20
2023-02-14T12:05:19.502Z,963.11
2023-02-14T12:07:45.850Z,963.04
2023-02-14T12:10:12.267Z,963.06
2023-02-14T12:12:38.617Z,963.08
2023-02-14T12:15:05.012Z,962.94
2023-02-14T12:17:31.401Z,963.00
2023-02-14T12:19:57.727Z,962.91
2023-02-14T12:22:24.144Z,963.03
2023-02-14T12:24:50.475Z,963.00
2023-02-14T12:27:16.872Z,963.05
2023-02-14T12:29:43.253Z,963.00
2023-02-14T12:32:09.696Z,962.92
2023-02-14T12:34:35.995Z,962.96
2023-02-14T12:37:02.630Z,962.91
2023-02-14T12:39:29.002Z,962.91
2023-02-14T12:41:55.326Z,962.96
2023-02-14T12:44:21.848Z,962.92
2023-02-14T12:46:48.164Z,962.91
2023-02-14T12:49:14.560Z,962.85
2023-02-14T12:51:40.902Z,962.87
2023-02-14T12:54:07.309Z,963.01
2023-02-14T12:56:33.687Z,963.00
2023-02-14T12:59:00.068Z,963.01
2023-02-14T13:01:29.260Z,963.01
2023-02-14T13:03:52.831Z,962.95
2023-02-14T13:06:19.261Z,962.92
2023-02-14T13:08:45.578Z,962.89
2023-02-14T13:11:12.192Z,962.86
2023-02-14T13:13:38.577Z,962.83
2023-02-14T13:16:04.923Z,962.77
2023-02-14T13:18:31.273Z,962.78
2023-02-14T13:20:57.740Z,962.80
2023-02-14T13:23:23.961Z,962.72
2023-02-14T13:25:50.342Z,962.83
2023-02-14T13:28:16.789Z,962.78
2023-02-14T13:30:43.273Z,962.77
2023-02-14T13:33:09.534Z,962.69
2023-02-14T13:35:35.908Z,962.69
2023-02-14T13:38:02.288Z,962.71
2023-02-14T13:40:28.655Z,962.75
2023-02-14T13:42:55.051Z,962.70
2023-02-14T13:45:21.514Z,962.68
2023-02-14T13:47:47.887Z,962.67
2023-02-14T13:50:14.200Z,962.76
2023-02-14T13:52:40.586Z,962.75
2023-02-14T13:55:06.912Z,962.78
2023-02-14T13:57:33.246Z,962.89
2023-02-14T13:59:59.664Z,962.90
2023-02-14T14:02:28.266Z,962.90
2023-02-14T14:04:52.375Z,962.83
2023-02-14T14:07:18.744Z,962.87
2023-02-14T14:09:45.129Z,962.89
2023-02-14T14:12:11.524Z,962.87
2023-02-14T14:14:37.845Z,962.91
2023-02-14T14:17:04.239Z,962.86
2023-02-14T14:19:30.637Z,962.90
2023-02-14T14:21:56.972Z,962.82
2023-02-14T14:24:23.345Z,962.86
2023-02-14T14:26:49.734Z,962.88
2023-02-14T14:29:16.079Z,962.78
2023-02-14T14:31:42.511Z,962.73
2023-02-14T14:34:08.827Z,962.68
2023-02-14T14:36:35.173Z,962.57
2023-02-14T14:39:01.544Z,962.61
2023-02-14T14:41:27.936Z,962.51
2023-02-14T14:43:54.429Z,962.53
2023-02-14T14:46:20.796Z,962.60
2023-02-14T14:48:47.115Z,962.57
2023-02-14T14:51:13.480Z,962.54
2023-02-14T14:53:40.057Z,962.57
2023-02-14T14:56:06.421Z,962.59
2023-02-14T14:58:32.754Z,962.61
2023-02-14T15:00:59.158Z,962.68
2023-02-14T15:03:25.415Z,962.62
2023-02-14T15:05:51.862Z,962.59
2023-02-14T15:08:18.187Z,962.69
2023-02-14T15:10:44.560Z,962.64
2023-02-14T15:13:11.091Z,962.71
2023-02-14T15:15:37.430Z,962.71
2023-02-14T15:18:03.788Z,962.75
2023-02-14T15:20:30.568Z,962.78
2023-02-14T15:22:56.857Z,962.77
2023-02-14T15:25:23.273Z,962.74
2023-02-14T15:27:49.675Z,962.75
2023-02-14T15:30:18.824Z,962.79
2023-02-14T15:32:45.521Z,962.83
2023-02-14T15:35:11.999Z,962.79
2023-02-14T15:37:38.932Z,962.77
2023-02-14T15:40:05.319Z,962.82
2023-02-14T15:42:31.700Z,962.85
2023-02-14T15:45:00.426Z,962.79
2023-02-14T15:47:26.849Z,962.81
2023-02-14T15:49:53.266Z,962.76
2023-02-14T15:52:19.610Z,962.78
2023-02-14T15:54:46.485Z,962.77
2023-02-14T15:57:12.806Z,962.82
2023-02-14T15:59:39.184Z,962.82
2023-02-14T16:02:05.573Z,962.83
2023-02-14T16:04:32.147Z,962.80
2023-02-14T16:06:58.533Z,962.80
2023-02-14T16:09:24.922Z,962.86
2023-02-14T16:11:51.440Z,962.85
2023-02-14T16:14:17.849Z,962.85
2023-02-14T16:16:44.201Z,962.83
2023-02-14T16:19:10.570Z,962.75
2023-02-14T16:21:36.887Z,962.75
2023-02-14T16:24:03.235Z,962.76
2023-02-14T16:26:29.787Z,962.78
2023-02-14T16:28:56.129Z,962.80
2023-02-14T16:31:22.601Z,962.78
2023-02-14T16:33:48.842Z,962.90
2023-02-14T16:36:15.238Z,962.89
2023-02-14T16:38:41.582Z,962.92
2023-02-14T16:41:07.895Z,962.98
2023-02-14T16:43:35.313Z,962.99
2023-02-14T16:46:01.714Z,962.96
2023-02-14T16:48:28.078Z,962.92
2023-02-14T16:50:54.605Z,962.96
2023-02-14T16:53:20.935Z,962.85
2023-02-14T16:55:47.332Z,962.96
2023-02-14T16:58:13.715Z,962.93
2023-02-14T17:00:40.025Z,962.96
2023-02-14T17:03:06.408Z,962.90
2023-02-14T17:05:32.759Z,962.94
2023-02-14T17:08:01.348Z,962.95
2023-02-14T17:10:25.486Z,963.00
2023-02-14T17:12:51.877Z,962.90
2023-02-14T17:15:18.174Z,962.96
2023-02-14T17:17:45.013Z,962.98
2023-02-14T17:20:11.412Z,963.01
2023-02-14T17:22:37.751Z,962.94
2023-02-14T17:25:04.124Z,963.00
2023-02-14T17:27:30.542Z,963.03
2023-02-14T17:29:56.997Z,963.05
2023-02-14T17:32:23.599Z,963.07
2023-02-14T17:34:50.424Z,963.13
2023-02-14T17:37:16.753Z,963.09
2023-02-14T17:39:44.295Z,963.14
2023-02-14T17:42:12.089Z,963.16
2023-02-14T17:44:37.020Z,963.17
2023-02-14T17:47:03.371Z,963.15
2023-02-14T17:49:29.692Z,963.17
2023-02-14T17:51:56.035Z,963.21
2023-02-14T17:54:22.423Z,963.23
2023-02-14T17:56:48.909Z,963.27
2023-02-14T17:59:15.343Z,963.23
2023-02-14T18:01:41.794Z,963.32
2023-02-14T18:04:08.146Z,963.38
2023-02-14T18:06:34.559Z,963.38
2023-02-14T18:09:00.956Z,963.28
2023-02-14T18:11:27.324Z,963.27
2023-02-14T18:13:53.705Z,963.32
2023-02-14T18:16:20.175Z,963.36
2023-02-14T18:18:46.470Z,963.37
2023-02-14T18:21:12.846Z,963.32
2023-02-14T18:23:39.237Z,963.31
2023-02-14T18:26:05.611Z,963.37
2023-02-14T18:28:32.007Z,963.33
2023-02-14T18:30:58.550Z,963.38
2023-02-14T18:33:25.624Z,963.39
2023-02-14T18:35:51.117Z,963.35
2023-02-14T18:38:17.540Z,963.31
2023-02-14T18:40:43.943Z,963.24
2023-02-14T18:43:10.325Z,963.28
2023-02-14T18:45:36.709Z,963.25
2023-02-14T18:48:03.069Z,963.27
2023-02-14T18:50:30.272Z,963.32
2023-02-14T18:52:56.692Z,963.31
2023-02-14T18:55:23.092Z,963.27
2023-02-14T18:57:49.461Z,963.27
2023-02-14T19:00:15.826Z,963.19
2023-02-14T19:02:42.188Z,963.26
2023-02-14T19:05:09.889Z,963.36
2023-02-14T19:07:36.346Z,963.39
2023-02-14T19:10:02.681Z,963.30
2023-02-14T19:12:29.069Z,963.32
2023-02-14T19:14:55.467Z,963.29
2023-02-14T19:17:21.817Z,963.38
2023-02-14T19:19:48.434Z,963.37
2023-02-14T19:22:14.551Z,963.40
2023-02-14T19:24:40.876Z,963.44
2023-02-14T19:27:07.251Z,963.41
2023-02-14T19:29:33.778Z,963.39
2023-02-14T19:32:00.196Z,963.42
2023-02-14T19:34:28.882Z,963.43
2023-02-14T19:36:52.844Z,963.48
2023-02-14T19:39:19.464Z,963.45
2023-02-14T19:41:45.818Z,963.49
2023-02-14T19:44:12.174Z,963.47
2023-02-14T19:46:43.157Z,963.46
2023-02-14T19:49:09.853Z,963.53
2023-02-14T19:51:36.192Z,963.50
2023-02-14T19:54:02.555Z,963.55
2023-02-14T19:56:28.936Z,963.53
2023-02-14T19:58:55.322Z,963.60
2023-02-14T20:01:21.715Z,963.57
2023-02-14T20:03:48.057Z,963.61
2023-02-14T20:06:14.452Z,963.57
2023-02-14T20:08:40.807Z,963.66
2023-02-14T20:11:07.125Z,963.66
2023-02-14T20:13:33.755Z,963.70
2023-02-14T20:16:00.133Z,963.65
2023-02-14T20:18:26.465Z,963.68
2023-02-14T20:20:53.213Z,963.61
2023-02-14T20:23:19.691Z,963.58
2023-02-14T20:25:46.057Z,963.56
2023-02-14T20:28:14.097Z,963.59
2023-02-14T20:30:40.459Z,963.62
2023-02-14T20:33:06.822Z,963.52
2023-02-14T20:35:33.193Z,963.53
2023-02-14T20:37:59.574Z,963.50
2023-02-14T20:40:25.883Z,963.57
2023-02-14T20:42:52.228Z,963.64
2023-02-14T20:45:18.780Z,963.67
2023-02-14T20:47:45.174Z,963.55
2023-02-14T20:50:11.518Z,963.55
2023-02-14T20:52:37.910Z,963.57
2023-02-14T20:55:04.232Z,963.54
2023-02-14T20:57:33.065Z,963.58
2023-02-14T20:59:59.457Z,963.54
2023-02-14T21:02:25.974Z,963.56
2023-02-14T21:04:52.332Z,963.53
2023-02-14T21:07:18.918Z,963.48
2023-02-14T21:09:45.288Z,963.49
2023-02-14T21:12:11.652Z,963.53
2023-02-14T21:14:38.280Z,963.50
2023-02-14T21:17:04.618Z,963.56
2023-02-14T21:19:30.998Z,963.58
2023-02-14T21:21:57.609Z,963.50
2023-02-14T21:24:24.241Z,963.60
2023-02-14T21:26:50.552Z,963.57
2023-02-14T21:29:17.075Z,963.59
2023-02-14T21:31:43.509Z,963.65
2023-02-14T21:34:09.780Z,963.64
2023-02-14T21:36:36.101Z,963.71
2023-02-14T21:39:02.510Z,963.73
2023-02-14T21:41:28.837Z,963.65
2023-02-14T21:43:55.191Z,963.64
2023-02-14T21:46:21.669Z,963.70
2023-02-14T21:48:48.036Z,963.74
2023-02-14T21:51:14.381Z,963.72
2023-02-14T21:53:40.762Z,963.71
2023-02-14T21:56:07.114Z,963.74
2023-02-14T21:58:33.493Z,963.73
2023-02-14T22:01:00.175Z,963.73
2023-02-14T22:03:26.279Z,963.74
2023-02-14T22:05:52.660Z,963.71
2023-02-14T22:08:21.405Z,963.76
2023-02-14T22:10:47.765Z,963.74
2023-02-14T22:13:14.447Z,963.81
2023-02-14T22:15:41.187Z,963.80
2023-02-14T22:18:07.467Z,963.87
2023-02-14T22:20:33.889Z,963.93
2023-02-14T22:23:00.187Z,964.02
2023-02-14T22:25:26.529Z,964.05
2023-02-14T22:27:52.868Z,964.07
2023-02-14T22:30:19.275Z,964.01
2023-02-14T22:32:45.613Z,963.95
2023-02-14T22:35:11.924Z,963.91
2023-02-14T22:37:38.328Z,963.92
2023-02-14T22:40:04.649Z,963.97
2023-02-14T22:42:30.990Z,963.93
2023-02-14T22:44:57.307Z,963.95
2023-02-14T22:47:23.677Z,963.94
2023-02-14T22:49:50.007Z,964.01
2023-02-14T22:52:16.358Z,963.97
2023-02-14T22:54:42.756Z,963.98
2023-02-14T22:57:09.360Z,964.04
2023-02-14T22:59:35.738Z,963.99
2023-02-14T23:02:02.106Z,964.01
2023-02-14T23:04:28.418Z,964.01
2023-02-14T23:06:54.961Z,963.97
2023-02-14T23:09:21.288Z,964.02
2023-02-14T23:11:47.651Z,964.00
2023-02-14T23:14:13.989Z,963.92
2023-02-14T23:16:40.356Z,963.92
2023-02-14T23:19:06.792Z,963.76
2023-02-14T23:21:33.169Z,963.86
2023-02-14T23:23:59.531Z,963.89
2023-02-14T23:26:25.867Z,963.94
2023-02-14T23:28:52.241Z,963.94
2023-02-14T23:31:18.646Z,963.96
2023-02-14T23:33:44.902Z,963.84
2023-02-14T23:36:11.245Z,963.84
2023-02-14T23:38:37.671Z,963.88
2023-02-14T23:41:03.999Z,963.88
2023-02-14T23:43:30.359Z,963.92
2023-02-14T23:45:56.778Z,963.89
2023-02-14T23:48:23.048Z,963.97
2023-02-14T23:50:49.389Z,963.89
2023-02-14T23:53:15.755Z,963.92
2023-02-14T23:55:42.128Z,963.85
2023-02-14T23:58:08.498Z,963.92
